createdAt,value
2023-03-29T00:21:43.408Z,20.39
2023-03-29T00:50:46.669Z,20.36
2023-03-29T01:19:49.134Z,20.33
2023-03-29T01:48:48.434Z,20.32
2023-03-29T02:17:51.526Z,20.29
2023-03-29T02:46:45.881Z,20.28
2023-03-29T03:15:42.003Z,20.26
2023-03-29T03:44:37.644Z,20.25
2023-03-29T04:13:37.893Z,20.24
2023-03-29T04:42:40.130Z,20.52
2023-03-29T05:11:41.135Z,20.99
2023-03-29T05:40:24.989Z,20.8
2023-03-29T06:09:28.786Z,20.71
2023-03-29T06:38:00.092Z,20.66
2023-03-29T07:06:57.789Z,20.67
2023-03-29T07:35:52.651Z,20.81
2023-03-29T08:04:46.905Z,21
2023-03-29T08:33:33.577Z,21.19
2023-03-29T09:02:31.512Z,21.2
2023-03-29T09:31:23.968Z,21.22
2023-03-29T10:00:02.438Z,21.35
2023-03-29T10:28:53.820Z,21.27
2023-03-29T11:03:18.207Z,21.4
2023-03-29T11:31:02.149Z,21.62
2023-03-29T11:59:39.914Z,21.79
2023-03-29T15:14:51.465Z,22.13
2023-03-29T15:43:51.073Z,21.99
2023-03-29T16:12:49.690Z,21.86
2023-03-29T16:41:42.189Z,21.77
2023-03-29T17:10:15.920Z,21.69
2023-03-29T17:38:54.658Z,21.63
2023-03-29T18:07:48.976Z,21.56
2023-03-29T18:36:35.537Z,21.52
2023-03-29T19:05:22.339Z,21.47
2023-03-29T19:34:02.771Z,21.42
2023-03-29T20:02:52.056Z,21.38
2023-03-29T20:31:34.466Z,21.34
2023-03-29T21:00:14.498Z,21.3
2023-03-29T21:29:04.172Z,21.25
2023-03-29T21:57:48.372Z,21.24
2023-03-29T22:26:39.543Z,21.21
2023-03-29T22:55:41.059Z,21.17
2023-03-29T23:24:43.897Z,21.14
2023-03-29T23:53:43.592Z,21.11
